createdAt,value
2023-02-08T00:02:57.936Z,83
2023-02-08T00:05:57.897Z,83
2023-02-08T00:08:57.911Z,83
2023-02-08T00:11:57.908Z,83
2023-02-08T00:14:57.920Z,83
2023-02-08T00:20:57.922Z,83
2023-02-08T00:23:57.903Z,83
2023-02-08T00:26:57.933Z,83
2023-02-08T00:29:57.900Z,83
2023-02-08T00:32:57.918Z,83
2023-02-08T00:35:57.899Z,83
2023-02-08T00:38:57.918Z,83
2023-02-08T00:41:57.912Z,83
2023-02-08T00:44:57.917Z,83
2023-02-08T00:47:57.901Z,83
2023-02-08T00:50:57.910Z,83
2023-02-08T00:53:57.911Z,83
2023-02-08T00:56:57.919Z,83
2023-02-08T00:59:57.894Z,84
2023-02-08T01:02:57.896Z,84
2023-02-08T01:05:57.902Z,84
2023-02-08T01:08:57.901Z,84
2023-02-08T01:11:57.925Z,84
2023-02-08T01:17:57.917Z,84
2023-02-08T01:20:57.898Z,84
2023-02-08T01:23:57.906Z,84
2023-02-08T01:26:57.910Z,84
2023-02-08T01:29:57.901Z,84
2023-02-08T01:32:57.905Z,84
2023-02-08T01:35:57.904Z,84
2023-02-08T01:38:57.908Z,84
2023-02-08T01:41:57.922Z,84
2023-02-08T01:44:57.913Z,84
2023-02-08T01:47:57.910Z,84
2023-02-08T01:50:57.908Z,84
2023-02-08T01:53:57.905Z,84
2023-02-08T01:56:57.924Z,84
2023-02-08T01:59:57.902Z,84
2023-02-08T02:02:57.921Z,84
2023-02-08T02:05:57.912Z,84
2023-02-08T02:08:57.909Z,84
2023-02-08T02:11:57.917Z,84
2023-02-08T02:14:57.924Z,84
2023-02-08T02:17:57.926Z,84
2023-02-08T02:20:57.912Z,84
2023-02-08T02:23:57.934Z,84
2023-02-08T02:29:57.914Z,84
2023-02-08T02:32:57.917Z,84
2023-02-08T02:35:57.922Z,84
2023-02-08T02:38:57.927Z,84
2023-02-08T02:41:57.935Z,84
2023-02-08T02:44:57.921Z,84
2023-02-08T02:47:57.918Z,84
2023-02-08T02:50:57.919Z,84
2023-02-08T02:53:57.944Z,84
2023-02-08T02:56:58.038Z,84
2023-02-08T02:59:57.924Z,84
2023-02-08T03:02:57.936Z,84
2023-02-08T03:05:57.934Z,85
2023-02-08T03:08:57.949Z,85
2023-02-08T03:11:57.931Z,85
2023-02-08T03:14:57.929Z,85
2023-02-08T03:17:57.935Z,85
2023-02-08T03:20:57.930Z,85
2023-02-08T03:23:57.945Z,85
2023-02-08T03:26:57.948Z,85
2023-02-08T03:29:57.954Z,85
2023-02-08T03:32:57.937Z,85
2023-02-08T03:35:57.935Z,85
2023-02-08T03:38:57.948Z,85
2023-02-08T03:41:57.951Z,85
2023-02-08T03:44:57.947Z,85
2023-02-08T03:47:57.949Z,85
2023-02-08T03:50:57.940Z,85
2023-02-08T03:53:57.960Z,85
2023-02-08T03:56:57.939Z,85
2023-02-08T03:59:57.954Z,85
2023-02-08T04:02:57.944Z,85
2023-02-08T04:05:57.930Z,85
2023-02-08T04:08:57.953Z,85
2023-02-08T04:11:57.940Z,85
2023-02-08T04:14:57.932Z,85
2023-02-08T04:17:57.959Z,85
2023-02-08T04:20:57.941Z,85
2023-02-08T04:23:57.957Z,85
2023-02-08T04:26:57.948Z,85
2023-02-08T04:29:57.942Z,85
2023-02-08T04:32:57.947Z,85
2023-02-08T04:35:57.960Z,85
2023-02-08T04:38:57.957Z,85
2023-02-08T04:41:57.953Z,85
2023-02-08T04:44:57.957Z,85
2023-02-08T04:47:59.148Z,85
2023-02-08T04:50:57.948Z,85
2023-02-08T04:53:57.970Z,85
2023-02-08T04:56:57.962Z,85
2023-02-08T05:00:00.229Z,85
2023-02-08T05:02:57.966Z,85
2023-02-08T05:05:57.957Z,85
2023-02-08T05:08:57.965Z,85
2023-02-08T05:11:57.952Z,85
2023-02-08T05:14:57.971Z,85
2023-02-08T05:17:57.989Z,85
2023-02-08T05:20:57.978Z,85
2023-02-08T05:23:58.004Z,85
2023-02-08T05:26:57.986Z,85
2023-02-08T05:29:59.051Z,85
2023-02-08T05:32:57.982Z,85
2023-02-08T05:38:58.015Z,85
2023-02-08T05:41:57.990Z,85
2023-02-08T05:44:57.994Z,85
2023-02-08T05:47:57.992Z,85
2023-02-08T05:50:57.979Z,85
2023-02-08T05:53:57.999Z,85
2023-02-08T05:56:57.975Z,85
2023-02-08T05:59:57.986Z,85
2023-02-08T06:02:58.023Z,85
2023-02-08T06:05:58.066Z,85
2023-02-08T06:08:58.003Z,85
2023-02-08T06:11:57.987Z,85
2023-02-08T06:14:57.992Z,85
2023-02-08T06:17:58.017Z,85
2023-02-08T06:20:57.987Z,85
2023-02-08T06:23:58.023Z,85
2023-02-08T06:26:58.130Z,85
2023-02-08T06:29:57.992Z,85
2023-02-08T06:32:57.997Z,85
2023-02-08T06:35:57.998Z,85
2023-02-08T06:38:57.984Z,85
2023-02-08T06:41:57.990Z,85
2023-02-08T06:44:58.009Z,85
2023-02-08T06:47:58.007Z,85
2023-02-08T06:50:57.990Z,85
2023-02-08T06:53:58.008Z,85
2023-02-08T06:56:57.987Z,85
2023-02-08T06:59:58.008Z,85
2023-02-08T07:02:58.011Z,86
2023-02-08T07:06:04.365Z,86
2023-02-08T07:08:57.996Z,86
2023-02-08T07:11:57.997Z,86
2023-02-08T07:14:57.996Z,86
2023-02-08T07:17:57.997Z,86
2023-02-08T07:20:57.997Z,86
2023-02-08T07:23:58.011Z,86
2023-02-08T07:26:57.994Z,86
2023-02-08T07:29:58.002Z,86
2023-02-08T07:32:57.998Z,86
2023-02-08T07:35:58.003Z,86
2023-02-08T07:38:58.013Z,86
2023-02-08T07:41:58.015Z,86
2023-02-08T07:44:58.004Z,86
2023-02-08T07:47:58.009Z,86
2023-02-08T07:50:57.998Z,86
2023-02-08T07:53:58.025Z,86
2023-02-08T07:56:58.012Z,86
2023-02-08T07:59:58.010Z,86
2023-02-08T08:02:58.011Z,86
2023-02-08T08:05:58.020Z,86
2023-02-08T08:08:58.022Z,86
2023-02-08T08:11:58.014Z,85
2023-02-08T08:14:58.015Z,85
2023-02-08T08:17:58.022Z,85
2023-02-08T08:20:58.029Z,85
2023-02-08T08:23:58.026Z,85
2023-02-08T08:26:58.024Z,85
2023-02-08T08:29:58.015Z,85
2023-02-08T08:32:58.016Z,85
2023-02-08T08:35:58.022Z,85
2023-02-08T08:38:58.020Z,85
2023-02-08T08:41:58.015Z,85
2023-02-08T08:44:58.024Z,85
2023-02-08T08:47:58.036Z,85
2023-02-08T08:50:58.031Z,85
2023-02-08T08:53:58.049Z,85
2023-02-08T08:56:58.022Z,85
2023-02-08T08:59:58.053Z,85
2023-02-08T09:02:58.032Z,85
2023-02-08T09:05:58.027Z,85
2023-02-08T09:11:58.028Z,85
2023-02-08T09:14:58.018Z,85
2023-02-08T09:17:58.026Z,85
2023-02-08T09:20:58.022Z,85
2023-02-08T09:23:58.017Z,85
2023-02-08T09:29:58.034Z,85
2023-02-08T09:32:58.045Z,85
2023-02-08T09:35:58.055Z,85
2023-02-08T09:38:58.034Z,85
2023-02-08T09:41:58.017Z,85
2023-02-08T09:44:58.042Z,84
2023-02-08T09:47:58.031Z,84
2023-02-08T09:50:58.040Z,84
2023-02-08T09:53:58.036Z,84
2023-02-08T09:56:58.044Z,83
2023-02-08T09:59:58.161Z,83
2023-02-08T10:02:58.209Z,83
2023-02-08T10:05:58.151Z,83
2023-02-08T10:08:58.149Z,83
2023-02-08T10:11:58.360Z,83
2023-02-08T10:14:58.147Z,82
2023-02-08T10:17:58.291Z,82
2023-02-08T10:23:58.160Z,81
2023-02-08T10:26:58.192Z,81
2023-02-08T10:29:58.163Z,81
2023-02-08T10:32:58.173Z,81
2023-02-08T10:35:58.161Z,81
2023-02-08T10:38:58.169Z,80
2023-02-08T10:41:58.165Z,80
2023-02-08T10:44:58.155Z,80
2023-02-08T10:47:58.161Z,80
2023-02-08T10:50:58.158Z,80
2023-02-08T10:53:58.181Z,79
2023-02-08T10:56:58.168Z,79
2023-02-08T10:59:58.181Z,79
2023-02-08T11:02:58.169Z,79
2023-02-08T11:05:58.162Z,78
2023-02-08T11:08:58.179Z,78
2023-02-08T11:11:58.166Z,78
2023-02-08T11:14:58.159Z,78
2023-02-08T11:17:58.166Z,78
2023-02-08T11:20:58.169Z,77
2023-02-08T11:23:58.172Z,77
2023-02-08T11:26:58.162Z,77
2023-02-08T11:29:58.180Z,77
2023-02-08T11:32:58.190Z,77
2023-02-08T11:35:58.188Z,77
2023-02-08T11:38:58.173Z,77
2023-02-08T11:41:58.167Z,76
2023-02-08T11:44:58.172Z,76
2023-02-08T11:47:58.189Z,76
2023-02-08T11:50:58.182Z,76
2023-02-08T11:53:58.188Z,76
2023-02-08T11:59:58.176Z,76
2023-02-08T12:02:58.174Z,76
2023-02-08T12:08:58.183Z,76
2023-02-08T12:11:58.193Z,76
2023-02-08T12:14:58.188Z,76
2023-02-08T12:17:58.210Z,75
2023-02-08T12:20:58.188Z,75
2023-02-08T12:23:58.191Z,75
2023-02-08T12:26:58.187Z,75
2023-02-08T12:29:58.195Z,75
2023-02-08T12:32:58.202Z,75
2023-02-08T12:36:04.472Z,75
2023-02-08T12:41:58.187Z,75
2023-02-08T12:44:58.172Z,75
2023-02-08T12:48:03.583Z,75
2023-02-08T12:50:58.204Z,75
2023-02-08T12:53:58.198Z,74
2023-02-08T12:57:02.300Z,74
2023-02-08T12:59:58.196Z,74
2023-02-08T13:02:58.220Z,74
2023-02-08T13:06:02.395Z,74
2023-02-08T13:08:58.220Z,73
2023-02-08T13:11:58.187Z,73
2023-02-08T13:14:58.206Z,73
2023-02-08T13:17:58.189Z,73
2023-02-08T13:23:58.198Z,73
2023-02-08T13:26:58.215Z,73
2023-02-08T13:29:58.188Z,73
2023-02-08T13:32:58.201Z,72
2023-02-08T13:35:58.196Z,72
2023-02-08T13:38:58.232Z,72
2023-02-08T13:41:58.198Z,72
2023-02-08T13:44:58.207Z,72
2023-02-08T13:47:58.204Z,72
2023-02-08T13:50:58.202Z,72
2023-02-08T13:53:58.283Z,72
2023-02-08T13:56:58.201Z,72
2023-02-08T13:59:58.205Z,72
2023-02-08T14:02:58.221Z,71
2023-02-08T14:05:58.212Z,71
2023-02-08T14:08:58.231Z,71
2023-02-08T14:11:58.205Z,71
2023-02-08T14:14:58.219Z,71
2023-02-08T14:17:58.510Z,71
2023-02-08T14:20:58.217Z,71
2023-02-08T14:23:58.211Z,71
2023-02-08T14:26:58.206Z,71
2023-02-08T14:29:58.206Z,71
2023-02-08T14:32:58.205Z,71
2023-02-08T14:35:58.209Z,70
2023-02-08T14:38:58.224Z,70
2023-02-08T14:41:58.200Z,70
2023-02-08T14:44:58.218Z,70
2023-02-08T14:47:58.203Z,70
2023-02-08T14:50:58.212Z,70
2023-02-08T14:53:58.225Z,70
2023-02-08T14:56:58.206Z,70
2023-02-08T14:59:58.249Z,70
2023-02-08T15:02:58.208Z,70
2023-02-08T15:05:58.208Z,70
2023-02-08T15:08:58.212Z,70
2023-02-08T15:11:58.237Z,69
2023-02-08T15:14:58.215Z,69
2023-02-08T15:17:58.222Z,69
2023-02-08T15:20:58.213Z,69
2023-02-08T15:23:58.234Z,69
2023-02-08T15:26:58.249Z,69
2023-02-08T15:29:58.218Z,69
2023-02-08T15:32:58.229Z,69
2023-02-08T15:35:58.218Z,69
2023-02-08T15:38:58.234Z,69
2023-02-08T15:41:58.228Z,69
2023-02-08T15:44:58.217Z,69
2023-02-08T15:47:58.220Z,69
2023-02-08T15:50:58.216Z,69
2023-02-08T15:53:58.243Z,69
2023-02-08T15:56:58.223Z,69
2023-02-08T15:59:58.223Z,69
2023-02-08T16:02:58.237Z,69
2023-02-08T16:05:58.229Z,69
2023-02-08T16:08:58.235Z,69
2023-02-08T16:11:58.234Z,69
2023-02-08T16:14:58.247Z,69
2023-02-08T16:17:58.219Z,69
2023-02-08T16:20:58.271Z,69
2023-02-08T16:23:58.289Z,69
2023-02-08T16:26:58.236Z,69
2023-02-08T16:29:58.303Z,69
2023-02-08T16:32:58.238Z,69
2023-02-08T16:35:58.256Z,69
2023-02-08T16:38:58.252Z,69
2023-02-08T16:42:13.814Z,69
2023-02-08T16:44:58.244Z,69
2023-02-08T16:48:00.082Z,69
2023-02-08T16:50:58.243Z,69
2023-02-08T16:53:58.269Z,69
2023-02-08T16:56:58.257Z,69
2023-02-08T16:59:58.245Z,69
2023-02-08T17:02:58.282Z,70
2023-02-08T17:05:58.247Z,70
2023-02-08T17:08:58.259Z,70
2023-02-08T17:11:58.248Z,70
2023-02-08T17:14:58.250Z,70
2023-02-08T17:17:58.243Z,70
2023-02-08T17:20:58.240Z,70
2023-02-08T17:23:58.252Z,70
2023-02-08T17:26:58.251Z,70
2023-02-08T17:29:58.250Z,70
2023-02-08T17:32:58.265Z,70
2023-02-08T17:35:58.247Z,70
2023-02-08T17:38:58.250Z,70
2023-02-08T17:41:58.250Z,70
2023-02-08T17:44:58.258Z,70
2023-02-08T17:47:58.257Z,70
2023-02-08T17:50:58.281Z,70
2023-02-08T17:53:58.285Z,70
2023-02-08T17:56:58.274Z,70
2023-02-08T17:59:58.327Z,70
2023-02-08T18:03:00.543Z,70
2023-02-08T18:05:58.276Z,71
2023-02-08T18:08:58.285Z,71
2023-02-08T18:11:58.272Z,71
2023-02-08T18:14:58.278Z,71
2023-02-08T18:17:58.289Z,71
2023-02-08T18:20:58.273Z,71
2023-02-08T18:23:58.288Z,71
2023-02-08T18:26:59.790Z,71
2023-02-08T18:32:58.265Z,71
2023-02-08T18:35:58.298Z,71
2023-02-08T18:38:58.317Z,71
2023-02-08T18:41:58.283Z,71
2023-02-08T18:44:58.281Z,71
2023-02-08T18:47:58.273Z,71
2023-02-08T18:50:58.311Z,71
2023-02-08T18:53:58.290Z,72
2023-02-08T18:56:58.298Z,72
2023-02-08T18:59:58.283Z,72
2023-02-08T19:02:58.292Z,72
2023-02-08T19:05:58.276Z,72
2023-02-08T19:08:58.298Z,72
2023-02-08T19:11:58.306Z,72
2023-02-08T19:17:58.276Z,72
2023-02-08T19:20:58.291Z,72
2023-02-08T19:23:58.315Z,72
2023-02-08T19:26:58.285Z,72
2023-02-08T19:29:58.277Z,72
2023-02-08T19:32:58.286Z,72
2023-02-08T19:35:58.282Z,72
2023-02-08T19:38:58.322Z,72
2023-02-08T19:41:58.343Z,72
2023-02-08T19:44:58.293Z,73
2023-02-08T19:47:58.295Z,73
2023-02-08T19:50:58.296Z,73
2023-02-08T19:53:58.317Z,73
2023-02-08T19:56:58.287Z,73
2023-02-08T19:59:58.304Z,73
2023-02-08T20:02:58.295Z,73
2023-02-08T20:05:58.301Z,73
2023-02-08T20:08:58.311Z,73
2023-02-08T20:11:58.301Z,73
2023-02-08T20:14:58.300Z,73
2023-02-08T20:17:58.302Z,74
2023-02-08T20:20:58.301Z,74
2023-02-08T20:23:58.301Z,74
2023-02-08T20:26:58.327Z,74
2023-02-08T20:29:58.317Z,74
2023-02-08T20:32:58.292Z,74
2023-02-08T20:35:58.305Z,74
2023-02-08T20:38:58.313Z,74
2023-02-08T20:41:58.296Z,74
2023-02-08T20:44:58.297Z,74
2023-02-08T20:47:58.294Z,74
2023-02-08T20:50:58.305Z,74
2023-02-08T20:53:58.311Z,74
2023-02-08T20:56:58.303Z,74
2023-02-08T20:59:58.302Z,74
2023-02-08T21:02:58.307Z,75
2023-02-08T21:05:58.314Z,74
2023-02-08T21:08:58.346Z,74
2023-02-08T21:11:58.319Z,74
2023-02-08T21:14:58.308Z,74
2023-02-08T21:17:58.359Z,74
2023-02-08T21:20:58.316Z,75
2023-02-08T21:23:58.324Z,75
2023-02-08T21:26:58.320Z,75
2023-02-08T21:29:58.337Z,74
2023-02-08T21:32:58.308Z,75
2023-02-08T21:35:58.328Z,75
2023-02-08T21:38:58.331Z,75
2023-02-08T21:41:58.313Z,75
2023-02-08T21:44:58.322Z,75
2023-02-08T21:47:58.316Z,75
2023-02-08T21:50:58.318Z,75
2023-02-08T21:53:58.332Z,75
2023-02-08T21:56:58.326Z,75
2023-02-08T21:59:58.333Z,75
2023-02-08T22:02:58.354Z,75
2023-02-08T22:05:58.330Z,75
2023-02-08T22:08:58.338Z,75
2023-02-08T22:11:58.409Z,75
2023-02-08T22:14:58.317Z,75
2023-02-08T22:17:58.316Z,75
2023-02-08T22:20:58.336Z,75
2023-02-08T22:23:58.335Z,75
2023-02-08T22:26:58.341Z,75
2023-02-08T22:29:58.481Z,75
2023-02-08T22:32:58.352Z,75
2023-02-08T22:35:58.323Z,75
2023-02-08T22:38:58.383Z,75
2023-02-08T22:41:58.328Z,75
2023-02-08T22:44:58.344Z,75
2023-02-08T22:47:58.335Z,75
2023-02-08T22:50:58.357Z,75
2023-02-08T22:53:58.343Z,75
2023-02-08T22:56:58.347Z,75
2023-02-08T22:59:58.362Z,75
2023-02-08T23:02:58.380Z,76
2023-02-08T23:05:58.341Z,76
2023-02-08T23:08:58.349Z,76
2023-02-08T23:11:58.341Z,76
2023-02-08T23:14:58.345Z,76
2023-02-08T23:17:58.364Z,76
2023-02-08T23:20:58.340Z,76
2023-02-08T23:23:58.351Z,76
2023-02-08T23:26:58.342Z,76
2023-02-08T23:29:58.359Z,76
2023-02-08T23:32:58.359Z,76
2023-02-08T23:35:58.359Z,76
2023-02-08T23:38:58.368Z,76
2023-02-08T23:41:58.353Z,76
2023-02-08T23:44:58.350Z,76
2023-02-08T23:47:58.357Z,76
2023-02-08T23:50:58.350Z,76
2023-02-08T23:53:58.391Z,76
2023-02-08T23:56:58.352Z,77
2023-02-08T23:59:59.810Z,76
